createdAt,value
2023-05-22T00:00:42.303Z,89.60
2023-05-22T00:03:10.038Z,90.00
2023-05-22T00:05:44.172Z,89.20
2023-05-22T00:08:13.541Z,89.30
2023-05-22T00:10:43.264Z,89.10
2023-05-22T00:13:15.906Z,88.50
2023-05-22T00:15:44.055Z,88.00
2023-05-22T00:18:12.182Z,88.20
2023-05-22T00:20:40.246Z,87.20
2023-05-22T00:23:09.479Z,87.00
2023-05-22T00:25:37.227Z,86.80
2023-05-22T00:28:05.040Z,86.60
2023-05-22T00:30:33.081Z,86.90
2023-05-22T00:33:01.098Z,86.60
2023-05-22T00:35:30.309Z,86.30
2023-05-22T00:38:02.664Z,86.40
2023-05-22T00:40:31.236Z,86.40
2023-05-22T00:42:59.847Z,85.90
2023-05-22T00:45:27.539Z,85.40
2023-05-22T00:47:55.313Z,85.20
2023-05-22T00:50:23.347Z,86.20
2023-05-22T00:52:51.231Z,85.70
2023-05-22T00:55:19.013Z,84.20
2023-05-22T00:57:47.917Z,83.30
2023-05-22T01:00:16.572Z,83.20
2023-05-22T01:02:49.162Z,82.80
2023-05-22T01:05:19.826Z,82.30
2023-05-22T01:08:07.803Z,81.80
2023-05-22T01:10:56.029Z,82.10
2023-05-22T01:13:23.604Z,80.90
2023-05-22T01:15:56.964Z,81.20
2023-05-22T01:18:33.873Z,81.00
2023-05-22T01:21:01.934Z,81.20
2023-05-22T01:23:29.854Z,81.40
2023-05-22T01:25:57.913Z,80.90
2023-05-22T01:28:29.513Z,80.60
2023-05-22T01:31:01.032Z,80.70
2023-05-22T01:33:33.681Z,80.70
2023-05-22T01:36:03.581Z,80.70
2023-05-22T01:38:51.524Z,80.30
2023-05-22T01:41:24.891Z,79.90
2023-05-22T01:44:04.518Z,80.10
2023-05-22T01:46:40.881Z,78.60
2023-05-22T01:49:14.810Z,78.30
2023-05-22T01:51:44.295Z,78.30
2023-05-22T01:54:12.361Z,78.50
2023-05-22T01:56:41.281Z,77.70
2023-05-22T01:59:09.198Z,77.60
2023-05-22T02:01:37.024Z,77.20
2023-05-22T02:04:05.493Z,76.80
2023-05-22T02:06:33.859Z,77.20
2023-05-22T02:09:06.046Z,77.20
2023-05-22T02:11:34.651Z,77.30
2023-05-22T02:14:02.568Z,76.90
2023-05-22T02:16:30.659Z,76.70
2023-05-22T02:18:58.759Z,75.90
2023-05-22T02:21:28.559Z,76.20
2023-05-22T02:23:56.496Z,75.90
2023-05-22T02:26:24.525Z,75.40
2023-05-22T02:28:52.303Z,75.00
2023-05-22T02:31:20.006Z,76.50
2023-05-22T02:33:48.299Z,75.60
2023-05-22T02:36:16.080Z,75.00
2023-05-22T02:38:43.981Z,75.10
2023-05-22T02:41:11.827Z,77.50
2023-05-22T02:43:41.081Z,76.50
2023-05-22T02:46:08.973Z,76.70
2023-05-22T02:48:37.193Z,76.40
2023-05-22T02:51:05.173Z,76.30
2023-05-22T02:53:33.073Z,75.90
2023-05-22T02:56:01.162Z,74.90
2023-05-22T02:58:29.382Z,74.60
2023-05-22T03:00:57.101Z,73.90
2023-05-22T03:03:25.422Z,73.70
2023-05-22T03:05:53.363Z,73.80
2023-05-22T03:08:21.086Z,74.00
2023-05-22T03:10:49.852Z,73.60
2023-05-22T03:13:17.756Z,71.50
2023-05-22T03:15:45.608Z,72.20
2023-05-22T03:18:13.532Z,72.70
2023-05-22T03:20:41.462Z,71.50
2023-05-22T03:23:09.236Z,71.40
2023-05-22T03:25:37.257Z,70.30
2023-05-22T03:28:05.356Z,71.10
2023-05-22T03:30:33.213Z,70.60
2023-05-22T03:33:01.194Z,69.40
2023-05-22T03:35:28.935Z,69.20
2023-05-22T03:37:57.008Z,69.00
2023-05-22T03:40:25.006Z,69.00
2023-05-22T03:42:52.725Z,67.80
2023-05-22T03:45:20.682Z,68.40
2023-05-22T03:47:48.794Z,69.40
2023-05-22T03:50:16.603Z,68.40
2023-05-22T03:52:44.793Z,67.90
2023-05-22T03:55:12.855Z,68.50
2023-05-22T03:57:40.631Z,68.60
2023-05-22T04:00:08.497Z,68.20
2023-05-22T04:05:17.611Z,64.50
2023-05-22T04:07:45.599Z,65.70
2023-05-22T04:10:13.471Z,65.90
2023-05-22T04:12:41.225Z,65.40
2023-05-22T04:15:09.065Z,64.90
2023-05-22T04:17:36.906Z,64.50
2023-05-22T04:20:04.834Z,64.40
2023-05-22T04:22:33.761Z,64.80
2023-05-22T04:25:01.568Z,64.70
2023-05-22T04:27:29.335Z,65.30
2023-05-22T04:29:57.748Z,65.80
2023-05-22T04:32:25.833Z,66.00
2023-05-22T04:34:53.701Z,65.00
2023-05-22T04:37:21.820Z,65.40
2023-05-22T04:39:49.815Z,65.30
2023-05-22T04:42:17.951Z,64.10
2023-05-22T04:44:46.199Z,60.70
2023-05-22T04:47:14.516Z,61.20
2023-05-22T04:49:42.356Z,59.70
2023-05-22T04:52:10.593Z,60.40
2023-05-22T04:54:38.728Z,60.30
2023-05-22T04:57:07.097Z,59.80
2023-05-22T04:59:35.178Z,58.80
2023-05-22T05:02:03.080Z,59.30
2023-05-22T05:04:31.867Z,59.80
2023-05-22T05:06:59.976Z,59.80
2023-05-22T05:09:27.900Z,58.40
2023-05-22T05:11:55.719Z,58.10
2023-05-22T05:14:26.397Z,57.70
2023-05-22T05:16:54.168Z,58.00
2023-05-22T05:19:22.130Z,57.50
2023-05-22T05:21:50.273Z,57.40
2023-05-22T05:24:18.355Z,57.70
2023-05-22T05:26:46.426Z,56.30
2023-05-22T05:29:16.545Z,55.80
2023-05-22T05:31:44.546Z,56.10
2023-05-22T05:34:13.754Z,56.80
2023-05-22T05:36:43.165Z,56.90
2023-05-22T05:39:11.652Z,57.60
2023-05-22T05:41:39.476Z,58.30
2023-05-22T05:44:08.017Z,58.20
2023-05-22T05:46:36.298Z,57.80
2023-05-22T05:49:04.479Z,57.00
2023-05-22T05:51:32.909Z,56.20
2023-05-22T05:54:00.615Z,56.10
2023-05-22T05:56:28.687Z,55.10
2023-05-22T05:58:57.027Z,55.00
2023-05-22T06:01:25.000Z,54.00
2023-05-22T06:03:52.980Z,54.50
2023-05-22T06:06:41.019Z,54.00
2023-05-22T06:09:08.804Z,53.50
2023-05-22T06:11:37.019Z,53.90
2023-05-22T06:14:05.268Z,54.00
2023-05-22T06:16:33.162Z,53.70
2023-05-22T06:19:00.905Z,53.10
2023-05-22T06:21:29.758Z,53.70
2023-05-22T06:23:57.462Z,54.40
2023-05-22T06:26:25.217Z,53.80
2023-05-22T06:28:53.309Z,52.20
2023-05-22T06:31:21.093Z,51.90
2023-05-22T06:33:49.013Z,51.90
2023-05-22T06:36:18.302Z,52.20
2023-05-22T06:38:46.074Z,52.80
2023-05-22T06:41:14.085Z,52.90
2023-05-22T06:43:41.848Z,52.10
2023-05-22T06:46:09.893Z,53.20
2023-05-22T06:48:37.848Z,51.70
2023-05-22T06:51:05.797Z,51.90
2023-05-22T06:53:33.907Z,52.40
2023-05-22T06:56:01.653Z,51.60
2023-05-22T06:58:29.448Z,51.50
2023-05-22T07:00:57.629Z,51.80
2023-05-22T07:03:25.363Z,52.20
2023-05-22T07:05:54.333Z,52.30
2023-05-22T07:08:22.120Z,52.70
2023-05-22T07:10:49.858Z,52.00
2023-05-22T07:13:19.772Z,52.70
2023-05-22T07:15:47.810Z,52.50
2023-05-22T07:18:15.590Z,52.70
2023-05-22T07:20:43.651Z,52.70
2023-05-22T07:23:11.675Z,52.90
2023-05-22T07:25:39.457Z,52.90
2023-05-22T07:28:09.673Z,53.50
2023-05-22T07:30:44.029Z,52.30
2023-05-22T07:33:13.055Z,52.10
2023-05-22T07:35:41.032Z,52.50
2023-05-22T07:38:15.819Z,53.20
2023-05-22T07:40:47.453Z,53.40
2023-05-22T07:43:15.204Z,54.30
2023-05-22T07:45:43.670Z,55.00
2023-05-22T07:51:01.144Z,53.70
2023-05-22T07:53:28.946Z,54.30
2023-05-22T07:55:56.645Z,55.00
2023-05-22T08:04:04.559Z,54.30
2023-05-22T08:06:33.853Z,54.60
2023-05-22T08:09:01.662Z,54.80
2023-05-22T08:11:33.222Z,54.40
2023-05-22T08:14:01.053Z,54.60
2023-05-22T08:16:28.974Z,54.30
2023-05-22T08:38:45.882Z,53.00
2023-05-22T08:41:14.149Z,53.50
2023-05-22T08:43:41.913Z,53.40
2023-05-22T09:00:14.686Z,52.90
2023-05-22T09:02:47.732Z,53.80
2023-05-22T09:05:15.704Z,53.80
2023-05-22T09:07:43.393Z,53.50
2023-05-22T09:10:11.176Z,53.70
2023-05-22T09:26:43.886Z,53.50
2023-05-22T09:29:11.646Z,53.20
2023-05-22T09:31:39.386Z,53.10
2023-05-22T09:45:21.125Z,54.10
2023-05-22T09:47:49.011Z,54.10
2023-05-22T09:50:16.817Z,54.90
2023-05-22T10:04:10.039Z,58.90
2023-05-22T10:06:37.735Z,58.50
2023-05-22T10:09:05.536Z,58.40
2023-05-22T10:11:34.395Z,58.50
2023-05-22T10:14:04.727Z,58.60
2023-05-22T10:16:32.749Z,58.20
2023-05-22T10:19:03.841Z,58.20
2023-05-22T10:21:31.927Z,58.90
2023-05-22T10:23:59.720Z,59.50
2023-05-22T10:26:28.828Z,59.40
2023-05-22T10:28:56.535Z,59.60
2023-05-22T10:31:24.302Z,59.90
2023-05-22T10:33:54.804Z,60.20
2023-05-22T10:36:22.649Z,60.60
2023-05-22T10:38:50.449Z,60.70
2023-05-22T10:41:21.173Z,60.70
2023-05-22T10:43:48.983Z,60.90
2023-05-22T10:46:27.168Z,60.90
2023-05-22T10:49:03.776Z,60.80
2023-05-22T10:51:32.995Z,60.70
2023-05-22T10:54:00.718Z,61.60
2023-05-22T10:56:28.466Z,61.80
2023-05-22T10:58:58.088Z,62.50
2023-05-22T11:01:25.853Z,62.30
2023-05-22T11:03:53.754Z,62.40
2023-05-22T11:06:23.302Z,63.20
2023-05-22T11:08:50.970Z,63.80
2023-05-22T11:11:18.614Z,64.50
2023-05-22T11:16:37.784Z,65.00
2023-05-22T11:19:21.272Z,64.80
2023-05-22T11:21:55.380Z,64.80
2023-05-22T11:24:23.102Z,65.10
2023-05-22T11:26:50.909Z,65.10
2023-05-22T11:29:20.853Z,65.70
2023-05-22T11:31:48.648Z,66.10
2023-05-22T11:34:16.595Z,66.70
2023-05-22T11:36:45.913Z,67.40
2023-05-22T11:39:13.605Z,68.00
2023-05-22T11:41:41.287Z,70.00
2023-05-22T11:44:09.714Z,70.90
2023-05-22T11:46:37.586Z,71.90
2023-05-22T11:49:05.278Z,71.30
2023-05-22T11:51:33.900Z,72.60
2023-05-22T11:54:01.780Z,73.70
2023-05-22T11:56:29.490Z,72.60
2023-05-22T11:59:02.546Z,72.10
2023-05-22T12:01:30.472Z,72.30
2023-05-22T12:03:58.748Z,73.10
2023-05-22T12:06:26.642Z,73.00
2023-05-22T12:08:54.508Z,73.00
2023-05-22T12:11:22.637Z,72.50
2023-05-22T12:13:52.351Z,72.50
2023-05-22T12:16:32.971Z,72.70
2023-05-22T12:19:01.181Z,71.30
2023-05-22T12:21:28.921Z,71.70
2023-05-22T12:23:57.236Z,71.80
2023-05-22T12:26:25.303Z,71.40
2023-05-22T12:28:53.539Z,71.20
2023-05-22T12:31:21.503Z,71.90
2023-05-22T12:33:49.327Z,71.90
2023-05-22T12:36:17.070Z,71.30
2023-05-22T12:38:45.156Z,72.40
2023-05-22T12:41:12.975Z,71.80
2023-05-22T12:43:40.754Z,70.60
2023-05-22T12:46:09.383Z,71.30
2023-05-22T12:48:37.256Z,72.20
2023-05-22T12:51:05.078Z,73.10
2023-05-22T12:53:33.622Z,72.50
2023-05-22T12:56:01.441Z,73.30
2023-05-22T12:58:29.179Z,73.30
2023-05-22T13:01:01.061Z,74.10
2023-05-22T13:03:28.837Z,73.90
2023-05-22T13:05:56.597Z,73.00
2023-05-22T13:08:28.997Z,73.70
2023-05-22T13:10:56.773Z,74.20
2023-05-22T13:13:24.480Z,74.40
2023-05-22T13:15:55.234Z,75.10
2023-05-22T13:18:23.509Z,75.60
2023-05-22T13:20:51.546Z,75.60
2023-05-22T13:23:20.577Z,75.30
2023-05-22T13:25:48.982Z,76.40
2023-05-22T13:28:16.737Z,76.80
2023-05-22T13:30:45.098Z,77.10
2023-05-22T13:33:12.848Z,76.30
2023-05-22T13:35:41.970Z,75.00
2023-05-22T13:38:09.977Z,75.30
2023-05-22T13:40:38.034Z,75.10
2023-05-22T13:43:05.750Z,74.80
2023-05-22T13:45:47.120Z,74.90
2023-05-22T13:48:14.885Z,75.00
2023-05-22T13:50:43.107Z,74.30
2023-05-22T13:53:15.812Z,74.50
2023-05-22T13:55:43.815Z,74.30
2023-05-22T13:58:11.536Z,74.60
2023-05-22T14:00:45.078Z,74.20
2023-05-22T14:03:13.385Z,74.70
2023-05-22T14:05:43.751Z,74.50
2023-05-22T14:08:20.963Z,74.10
2023-05-22T14:10:49.132Z,74.20
2023-05-22T14:13:16.883Z,73.50
2023-05-22T14:15:44.716Z,73.70
2023-05-22T14:18:13.805Z,73.90
2023-05-22T14:20:41.828Z,73.90
2023-05-22T14:23:09.671Z,74.50
2023-05-22T14:25:37.802Z,74.40
2023-05-22T14:28:05.700Z,74.40
2023-05-22T14:30:33.445Z,74.10
2023-05-22T14:33:02.207Z,74.40
2023-05-22T14:35:29.896Z,74.90
2023-05-22T14:37:58.869Z,75.20
2023-05-22T14:40:26.811Z,75.50
2023-05-22T14:48:18.038Z,75.10
2023-05-22T14:50:52.423Z,75.10
2023-05-22T14:53:20.050Z,75.80
2023-05-22T14:55:55.901Z,76.00
2023-05-22T14:58:23.612Z,75.60
2023-05-22T15:00:51.717Z,75.80
2023-05-22T15:03:24.354Z,75.40
2023-05-22T15:05:53.989Z,75.10
2023-05-22T15:08:38.927Z,74.90
2023-05-22T15:11:07.921Z,75.20
2023-05-22T15:13:40.511Z,75.20
2023-05-22T15:16:08.670Z,75.30
2023-05-22T15:18:36.433Z,75.10
2023-05-22T15:21:04.374Z,75.30
2023-05-22T15:23:32.772Z,75.20
2023-05-22T15:26:00.539Z,75.10
2023-05-22T15:28:28.502Z,75.50
2023-05-22T15:33:37.223Z,75.60
2023-05-22T15:36:06.340Z,75.40
2023-05-22T15:38:34.139Z,75.10
2023-05-22T15:41:01.820Z,75.10
2023-05-22T15:43:29.840Z,75.00
2023-05-22T15:45:57.633Z,75.10
2023-05-22T15:48:25.335Z,75.30
2023-05-22T15:50:53.559Z,75.10
2023-05-22T15:53:21.254Z,75.70
2023-05-22T15:55:48.968Z,75.70
2023-05-22T15:58:17.124Z,76.10
2023-05-22T16:00:44.856Z,76.60
2023-05-22T16:03:12.614Z,77.30
2023-05-22T16:05:41.472Z,76.20
2023-05-22T16:08:14.181Z,76.30
2023-05-22T16:10:42.446Z,77.30
2023-05-22T16:13:10.415Z,77.60
2023-05-22T16:15:38.570Z,77.50
2023-05-22T16:18:07.222Z,78.10
2023-05-22T16:20:35.559Z,78.30
2023-05-22T16:23:03.293Z,78.30
2023-05-22T16:25:31.531Z,78.30
2023-05-22T16:27:59.224Z,78.70
2023-05-22T16:30:26.939Z,78.70
2023-05-22T16:32:55.038Z,78.70
2023-05-22T16:35:22.747Z,79.10
2023-05-22T16:37:50.519Z,79.50
2023-05-22T16:40:20.252Z,79.50
2023-05-22T16:42:48.076Z,79.60
2023-05-22T16:45:15.832Z,79.60
2023-05-22T16:47:43.995Z,79.50
2023-05-22T16:50:11.683Z,79.70
2023-05-22T16:52:39.407Z,80.20
2023-05-22T16:55:07.473Z,80.20
2023-05-22T16:57:36.179Z,80.20
2023-05-22T17:00:04.096Z,80.40
2023-05-22T17:02:32.726Z,80.80
2023-05-22T17:05:00.532Z,80.90
2023-05-22T17:07:28.300Z,81.40
2023-05-22T17:09:56.361Z,81.40
2023-05-22T17:12:24.490Z,81.80
2023-05-22T17:14:52.207Z,82.00
2023-05-22T17:17:22.084Z,82.40
2023-05-22T17:19:49.831Z,82.70
2023-05-22T17:22:17.560Z,83.10
2023-05-22T17:24:45.470Z,83.10
2023-05-22T17:27:24.061Z,83.40
2023-05-22T17:29:59.895Z,84.10
2023-05-22T17:32:27.757Z,84.20
2023-05-22T17:34:55.630Z,84.20
2023-05-22T17:37:23.421Z,84.30
2023-05-22T17:39:51.565Z,84.70
2023-05-22T17:42:19.307Z,84.60
2023-05-22T17:44:47.330Z,84.80
2023-05-22T17:47:15.134Z,85.30
2023-05-22T17:49:42.893Z,84.90
2023-05-22T17:52:11.521Z,86.00
2023-05-22T17:54:39.226Z,85.40
2023-05-22T17:57:06.991Z,85.70
2023-05-22T17:59:35.110Z,85.80
2023-05-22T18:02:03.355Z,85.60
2023-05-22T18:04:31.702Z,85.40
2023-05-22T18:07:01.055Z,85.40
2023-05-22T18:09:29.015Z,86.20
2023-05-22T18:11:58.313Z,86.30
2023-05-22T18:14:27.626Z,86.50
2023-05-22T18:16:55.753Z,86.60
2023-05-22T18:19:23.720Z,86.70
2023-05-22T18:21:51.770Z,86.80
2023-05-22T18:24:23.116Z,86.60
2023-05-22T18:26:52.592Z,86.20
2023-05-22T18:29:20.308Z,86.50
2023-05-22T18:31:48.094Z,86.90
2023-05-22T18:34:16.772Z,87.10
2023-05-22T18:36:44.510Z,87.00
2023-05-22T18:39:12.240Z,87.00
2023-05-22T18:41:40.333Z,87.30
2023-05-22T18:44:08.091Z,87.20
2023-05-22T18:46:35.844Z,87.20
2023-05-22T18:49:05.930Z,87.20
2023-05-22T18:51:33.972Z,87.30
2023-05-22T18:54:01.793Z,87.20
2023-05-22T18:56:29.727Z,87.00
2023-05-22T18:58:57.505Z,87.20
2023-05-22T19:01:25.488Z,87.90
2023-05-22T19:03:53.499Z,87.80
2023-05-22T19:06:21.214Z,87.60
2023-05-22T19:08:53.435Z,87.70
2023-05-22T19:11:21.366Z,88.10
2023-05-22T19:13:49.088Z,87.80
2023-05-22T19:16:16.866Z,88.00
2023-05-22T19:18:44.853Z,88.00
2023-05-22T19:21:12.729Z,88.70
2023-05-22T19:23:40.445Z,88.70
2023-05-22T19:26:09.012Z,88.90
2023-05-22T19:28:36.719Z,89.30
2023-05-22T19:31:04.507Z,89.30
2023-05-22T19:33:32.681Z,89.40
2023-05-22T19:36:00.367Z,89.90
2023-05-22T19:38:28.079Z,90.20
2023-05-22T19:40:56.183Z,90.30
2023-05-22T19:43:23.979Z,90.50
2023-05-22T19:45:51.920Z,90.70
2023-05-22T19:48:19.965Z,90.70
2023-05-22T19:50:47.788Z,90.90
2023-05-22T19:53:15.509Z,91.30
2023-05-22T19:55:43.523Z,91.50
2023-05-22T19:58:11.847Z,91.40
2023-05-22T20:00:39.863Z,91.50
2023-05-22T20:03:09.517Z,91.20
2023-05-22T20:05:37.930Z,91.20
2023-05-22T20:08:05.986Z,91.30
2023-05-22T20:10:34.516Z,91.40
2023-05-22T20:13:02.246Z,91.50
2023-05-22T20:15:33.806Z,91.40
2023-05-22T20:18:02.404Z,91.70
2023-05-22T20:20:31.088Z,92.10
2023-05-22T20:22:59.458Z,92.20
2023-05-22T20:25:27.723Z,93.20
2023-05-22T20:27:55.516Z,93.10
2023-05-22T20:30:23.342Z,93.40
2023-05-22T20:32:51.496Z,93.80
2023-05-22T20:35:19.589Z,94.20
2023-05-22T20:37:47.712Z,93.70
2023-05-22T20:40:15.758Z,94.00
2023-05-22T20:42:43.758Z,94.40
2023-05-22T20:45:14.286Z,95.10
2023-05-22T20:47:43.152Z,95.10
2023-05-22T20:50:11.114Z,95.30
2023-05-22T20:52:39.092Z,95.30
2023-05-22T20:55:07.012Z,95.60
2023-05-22T20:57:34.839Z,96.00
2023-05-22T21:00:02.545Z,95.80
2023-05-22T21:02:30.413Z,96.00
2023-05-22T21:04:58.209Z,96.00
2023-05-22T21:07:26.162Z,96.00
2023-05-22T21:09:54.242Z,96.20
2023-05-22T21:12:22.185Z,96.20
2023-05-22T21:14:49.936Z,96.20
2023-05-22T21:17:18.077Z,96.20
2023-05-22T21:19:45.843Z,96.10
2023-05-22T21:22:13.528Z,96.20
2023-05-22T21:24:41.504Z,96.70
2023-05-22T21:27:09.359Z,96.90
2023-05-22T21:29:37.235Z,97.20
2023-05-22T21:32:05.300Z,97.20
2023-05-22T21:34:33.042Z,97.40
2023-05-22T21:37:00.790Z,97.40
2023-05-22T21:39:28.846Z,97.10
2023-05-22T21:41:56.813Z,97.10
2023-05-22T21:44:24.580Z,97.80
2023-05-22T21:46:52.633Z,98.30
2023-05-22T21:49:20.517Z,98.80
2023-05-22T21:51:48.303Z,99.40
2023-05-22T21:54:16.784Z,99.70
2023-05-22T21:56:44.566Z,99.90
2023-05-22T21:59:12.431Z,99.90
2023-05-22T22:01:40.518Z,99.90
2023-05-22T22:04:08.430Z,99.90
2023-05-22T22:06:36.305Z,99.90
2023-05-22T22:09:04.529Z,99.90
2023-05-22T22:11:32.210Z,99.90
2023-05-22T22:14:00.355Z,99.90
2023-05-22T22:16:28.566Z,99.90
2023-05-22T22:18:56.405Z,99.90
2023-05-22T22:21:24.229Z,99.90
2023-05-22T22:23:52.414Z,99.90
2023-05-22T22:26:20.296Z,99.90
2023-05-22T22:28:48.090Z,99.90
2023-05-22T22:31:16.189Z,99.90
2023-05-22T22:33:44.120Z,99.90
2023-05-22T22:36:11.996Z,99.90
2023-05-22T22:38:39.899Z,99.90
2023-05-22T22:41:07.637Z,99.90
2023-05-22T22:43:35.557Z,99.90
2023-05-22T22:46:03.560Z,99.90
2023-05-22T22:48:31.527Z,99.90
2023-05-22T22:50:59.358Z,99.90
2023-05-22T22:53:27.441Z,99.90
2023-05-22T22:55:55.382Z,99.90
2023-05-22T22:58:23.349Z,99.90
2023-05-22T23:00:53.347Z,99.90
2023-05-22T23:03:21.145Z,99.90
2023-05-22T23:05:48.897Z,99.90
2023-05-22T23:08:16.877Z,99.90
2023-05-22T23:10:44.731Z,99.90
2023-05-22T23:13:12.744Z,99.90
2023-05-22T23:15:41.383Z,99.90
2023-05-22T23:18:09.731Z,99.90
2023-05-22T23:20:37.708Z,99.90
2023-05-22T23:23:06.689Z,99.90
2023-05-22T23:25:34.636Z,99.90
2023-05-22T23:28:02.773Z,99.90
2023-05-22T23:30:31.371Z,99.90
2023-05-22T23:32:59.263Z,99.90
2023-05-22T23:35:27.186Z,99.90
2023-05-22T23:37:55.332Z,99.90
2023-05-22T23:40:23.685Z,99.90
2023-05-22T23:42:51.908Z,99.90
2023-05-22T23:45:20.590Z,99.90
2023-05-22T23:47:48.545Z,99.90
2023-05-22T23:50:22.074Z,99.90
2023-05-22T23:52:50.257Z,99.90
2023-05-22T23:55:18.684Z,99.90
2023-05-22T23:57:46.967Z,99.90
